Neptune Avra — 9HKH6 — position and weather

sailwx.info

Track history (hours):
 
Tides and Currents Weather Stations Pressure Air Temp Water Temp Dewpoint Dewpoint Depression Visibility Wind Speed Wind Dir Waves Ship Positions

Neptune Avra

Last reported at 2016-Jun-29 03:25 UTC. Time now 2016-Jun-29 07:30 UTC.
Position N 35°57' W 005°34'.

Length 155 m; draft 6.5 m.

Type: Cargo ship. MMSI: 248598000.

Date/timePositionNaut miles runAvg speedWind from/ knotsBaromVisibWave heightAir tempDewpointWater temp
2016-Jun-29 03:25N 35°57' W 005°34'1214.4
2016-Jun-29 02:33N 36°00' W 005°19'27116.9
2016-Jun-28 10:32N 36°45' E 000°13'1818.1
2016-Jun-28 09:33N 36°48' E 000°34'5518.5
2016-Jun-28 06:32N 36°56' E 001°43'3918.6
2016-Jun-28 04:27N 37°02' E 002°31'1818.2
2016-Jun-28 03:29N 37°06' E 002°53'2118.1
2016-Jun-28 02:19N 37°10' E 003°19'1518.6
2016-Jun-28 01:31N 37°11' E 003°37'1818.4
2016-Jun-28 00:32N 37°14' E 003°60'25518.2
2016-Jun-27 10:33N 37°55' E 009°17'7318.1
2016-Jun-27 06:32N 38°06' E 010°48'1818.1
2016-Jun-27 05:33N 38°09' E 011°10'3617.8
2016-Jun-27 03:33N 38°15' E 011°55'1918.0
2016-Jun-27 02:31N 38°17' E 012°18'1818.2
2016-Jun-27 01:33N 38°21' E 012°40'1918.8
2016-Jun-27 00:33N 38°22' E 013°04'1918.5
2016-Jun-26 23:33N 38°22' E 013°28'1818.3
2016-Jun-26 22:33N 38°21' E 013°51'1918.8
2016-Jun-26 21:33N 38°20' E 014°15'2018.6
2016-Jun-26 20:29N 38°19' E 014°40'1718.3
2016-Jun-26 19:33N 38°19' E 015°02'1817.8
2016-Jun-26 18:34N 38°20' E 015°25'1413.6
2016-Jun-26 17:33N 38°16' E 015°41'10 9.9
2016-Jun-26 16:33N 38°07' E 015°37'1513.4
2016-Jun-26 15:26N 37°54' E 015°46'35413.5
2016-Jun-25 13:15N 43°43' E 014°28'1318.2
2016-Jun-25 12:33N 43°53' E 014°17'1818.0
2016-Jun-25 11:33N 44°07' E 014°01'1818.2
2016-Jun-25 10:33N 44°22' E 013°47'1818.5
2016-Jun-25 09:33N 44°37' E 013°33'1818.3
2016-Jun-25 08:33N 44°53' E 013°19'1818.0
2016-Jun-25 07:33N 45°08' E 013°06'1716.6
2016-Jun-25 06:33N 45°24' E 013°06'5 0.2
2016-Jun-24 02:33N 45°22' E 013°13'1816.1
2016-Jun-24 01:27N 45°05' E 013°18'44913.5
2016-Jun-22 16:13N 37°52' E 015°56'1116.8
2016-Jun-22 15:33N 37°53' E 015°42'1716.6
2016-Jun-22 14:34N 38°08' E 015°34'1211.8
2016-Jun-22 13:33N 38°19' E 015°39'1616.2
2016-Jun-22 12:33N 38°31' E 015°25'1616.2
2016-Jun-22 11:33N 38°42' E 015°10'1817.6
2016-Jun-22 10:33N 38°54' E 014°54'9017.5
2016-Jun-22 05:24N 39°55' E 013°28'14218.0
2016-Jun-21 21:32N 41°30' E 011°08'4018.0
2016-Jun-21 19:19N 41°57' E 010°29'1518.1
2016-Jun-21 18:30N 42°07' E 010°15'1717.8
2016-Jun-21 17:33N 42°18' E 009°58'1817.5
2016-Jun-21 16:33N 42°36' E 009°55'1717.4
2016-Jun-21 15:34N 42°53' E 009°56'1716.6
2016-Jun-21 14:34N 43°09' E 010°04'1716.6
2016-Jun-21 13:34N 43°25' E 010°10'1111.1
2016-Jun-21 12:34N 43°34' E 010°18'1 0.7
2016-Jun-21 11:33N 43°35' E 010°18'0 0.0
2016-Jun-21 10:34N 43°35' E 010°18'0 0.0
2016-Jun-21 09:34N 43°35' E 010°18'0 0.0
2016-Jun-21 08:33N 43°35' E 010°18'0 0.0
2016-Jun-21 07:33N 43°35' E 010°18'2 0.8
2016-Jun-21 04:34N 43°32' E 010°17'1010.0
2016-Jun-21 03:34N 43°25' E 010°08'1414.4
2016-Jun-21 02:33N 43°17' E 009°51'1716.6
2016-Jun-21 01:33N 43°14' E 009°29'1615.8
2016-Jun-21 00:33N 43°12' E 009°07'1716.8
2016-Jun-20 23:34N 43°09' E 008°45'1717.1
2016-Jun-20 22:33N 43°06' E 008°22'1717.1
2016-Jun-20 21:33N 43°03' E 007°59'1817.7
2016-Jun-20 20:33N 42°60' E 007°35'1818.0
2016-Jun-20 19:33N 42°58' E 007°10'10517.1
2016-Jun-20 13:26N 43°08' E 004°48'3517.6
2016-Jun-20 11:27N 43°18' E 004°02'13 1.9
2016-Jun-20 04:23N 43°24' E 003°45'9711.7
2016-Jun-19 20:08N 41°49' E 003°17'915.0
2016-Jun-19 19:33N 41°42' E 003°10'1715.3
2016-Jun-19 18:27N 41°29' E 002°57'4 4.9
2016-Jun-19 17:33N 41°26' E 002°53'1 0.5
2016-Jun-19 16:33N 41°26' E 002°54'0 0.4
2016-Jun-19 15:24N 41°26' E 002°54'0 0.4
2016-Jun-19 14:30N 41°26' E 002°54'1 0.5
2016-Jun-19 12:30N 41°27' E 002°54'1414.4
2016-Jun-19 11:33N 41°26' E 002°36'1514.9
2016-Jun-19 10:33N 41°19' E 002°18'  
Track history (hours):
 
Tides and Currents Weather Stations Pressure Air Temp Water Temp Dewpoint Dewpoint Depression Visibility Wind Speed Wind Dir Waves Ship Positions

Neptune Avra

Last reported at 2016-Jun-29 03:25 UTC. Time now 2016-Jun-29 07:30 UTC.
Position N 35°57' W 005°34'.

Length 155 m; draft 6.5 m.

Type: Cargo ship. MMSI: 248598000.

Date/timePositionNaut miles runAvg speedWind from/ knotsBaromVisibWave heightAir tempDewpointWater temp
2016-Jun-29 03:25N 35°57' W 005°34'1214.4
2016-Jun-29 02:33N 36°00' W 005°19'27116.9
2016-Jun-28 10:32N 36°45' E 000°13'1818.1
2016-Jun-28 09:33N 36°48' E 000°34'5518.5
2016-Jun-28 06:32N 36°56' E 001°43'3918.6
2016-Jun-28 04:27N 37°02' E 002°31'1818.2
2016-Jun-28 03:29N 37°06' E 002°53'2118.1
2016-Jun-28 02:19N 37°10' E 003°19'1518.6
2016-Jun-28 01:31N 37°11' E 003°37'1818.4
2016-Jun-28 00:32N 37°14' E 003°60'25518.2
2016-Jun-27 10:33N 37°55' E 009°17'7318.1
2016-Jun-27 06:32N 38°06' E 010°48'1818.1
2016-Jun-27 05:33N 38°09' E 011°10'3617.8
2016-Jun-27 03:33N 38°15' E 011°55'1918.0
2016-Jun-27 02:31N 38°17' E 012°18'1818.2
2016-Jun-27 01:33N 38°21' E 012°40'1918.8
2016-Jun-27 00:33N 38°22' E 013°04'1918.5
2016-Jun-26 23:33N 38°22' E 013°28'1818.3
2016-Jun-26 22:33N 38°21' E 013°51'1918.8
2016-Jun-26 21:33N 38°20' E 014°15'2018.6
2016-Jun-26 20:29N 38°19' E 014°40'1718.3
2016-Jun-26 19:33N 38°19' E 015°02'1817.8
2016-Jun-26 18:34N 38°20' E 015°25'1413.6
2016-Jun-26 17:33N 38°16' E 015°41'10 9.9
2016-Jun-26 16:33N 38°07' E 015°37'1513.4
2016-Jun-26 15:26N 37°54' E 015°46'35413.5
2016-Jun-25 13:15N 43°43' E 014°28'1318.2
2016-Jun-25 12:33N 43°53' E 014°17'1818.0
2016-Jun-25 11:33N 44°07' E 014°01'1818.2
2016-Jun-25 10:33N 44°22' E 013°47'1818.5
2016-Jun-25 09:33N 44°37' E 013°33'1818.3
2016-Jun-25 08:33N 44°53' E 013°19'1818.0
2016-Jun-25 07:33N 45°08' E 013°06'1716.6
2016-Jun-25 06:33N 45°24' E 013°06'5 0.2
2016-Jun-24 02:33N 45°22' E 013°13'1816.1
2016-Jun-24 01:27N 45°05' E 013°18'44913.5
2016-Jun-22 16:13N 37°52' E 015°56'1116.8
2016-Jun-22 15:33N 37°53' E 015°42'1716.6
2016-Jun-22 14:34N 38°08' E 015°34'1211.8
2016-Jun-22 13:33N 38°19' E 015°39'1616.2
2016-Jun-22 12:33N 38°31' E 015°25'1616.2
2016-Jun-22 11:33N 38°42' E 015°10'1817.6
2016-Jun-22 10:33N 38°54' E 014°54'9017.5
2016-Jun-22 05:24N 39°55' E 013°28'14218.0
2016-Jun-21 21:32N 41°30' E 011°08'4018.0
2016-Jun-21 19:19N 41°57' E 010°29'1518.1
2016-Jun-21 18:30N 42°07' E 010°15'1717.8
2016-Jun-21 17:33N 42°18' E 009°58'1817.5
2016-Jun-21 16:33N 42°36' E 009°55'1717.4
2016-Jun-21 15:34N 42°53' E 009°56'1716.6
2016-Jun-21 14:34N 43°09' E 010°04'1716.6
2016-Jun-21 13:34N 43°25' E 010°10'1111.1
2016-Jun-21 12:34N 43°34' E 010°18'1 0.7
2016-Jun-21 11:33N 43°35' E 010°18'0 0.0
2016-Jun-21 10:34N 43°35' E 010°18'0 0.0
2016-Jun-21 09:34N 43°35' E 010°18'0 0.0
2016-Jun-21 08:33N 43°35' E 010°18'0 0.0
2016-Jun-21 07:33N 43°35' E 010°18'2 0.8
2016-Jun-21 04:34N 43°32' E 010°17'1010.0
2016-Jun-21 03:34N 43°25' E 010°08'1414.4
2016-Jun-21 02:33N 43°17' E 009°51'1716.6
2016-Jun-21 01:33N 43°14' E 009°29'1615.8
2016-Jun-21 00:33N 43°12' E 009°07'1716.8
2016-Jun-20 23:34N 43°09' E 008°45'1717.1
2016-Jun-20 22:33N 43°06' E 008°22'1717.1
2016-Jun-20 21:33N 43°03' E 007°59'1817.7
2016-Jun-20 20:33N 42°60' E 007°35'1818.0
2016-Jun-20 19:33N 42°58' E 007°10'10517.1
2016-Jun-20 13:26N 43°08' E 004°48'3517.6
2016-Jun-20 11:27N 43°18' E 004°02'13 1.9
2016-Jun-20 04:23N 43°24' E 003°45'9711.7
2016-Jun-19 20:08N 41°49' E 003°17'915.0
2016-Jun-19 19:33N 41°42' E 003°10'1715.3
2016-Jun-19 18:27N 41°29' E 002°57'4 4.9
2016-Jun-19 17:33N 41°26' E 002°53'1 0.5
2016-Jun-19 16:33N 41°26' E 002°54'0 0.4
2016-Jun-19 15:24N 41°26' E 002°54'0 0.4
2016-Jun-19 14:30N 41°26' E 002°54'1 0.5
2016-Jun-19 12:30N 41°27' E 002°54'1414.4
2016-Jun-19 11:33N 41°26' E 002°36'1514.9
2016-Jun-19 10:33N 41°19' E 002°18'  

Dump ship's entire track history